Time;durP1;ratioP1;P1;durP2;ratioP2;P2;SDS_P1;SDS_P2;PMS_P1;PMS_P2;Temp;Humidity;BMP_temperature;BMP_pressure;BME280_temperature;BME280_humidity;BME280_pressure;Samples;Min_cycle;Max_cycle;Signal;HPM_P1;HPM_P2
2024/04/07 00:02:06;;;;;;;2.08;1.10;;;;;;;14.27;84.15;99690.84;5125019;28;20509;-64
2024/04/07 00:04:32;;;;;;;2.92;1.25;;;;;;;14.22;83.86;99705.81;5123742;28;20293;-64
2024/04/07 00:06:57;;;;;;;1.75;1.10;;;;;;;14.17;83.09;99710.38;5124855;28;20030;-64
2024/04/07 00:09:23;;;;;;;1.45;1.35;;;;;;;14.16;84.51;99698.19;5125182;28;20020;-64
2024/04/07 00:11:48;;;;;;;2.40;1.52;;;;;;;14.15;84.70;99706.94;5124840;28;20019;-64
2024/04/07 00:14:13;;;;;;;3.25;0.93;;;;;;;14.09;83.72;99703.63;5124954;28;20083;-64
2024/04/07 00:16:39;;;;;;;5.43;2.10;;;;;;;13.98;83.36;99708.34;5124912;28;20106;-63
2024/04/07 00:19:04;;;;;;;1.67;1.13;;;;;;;14.03;83.87;99716.91;5124915;28;20043;-64
2024/04/07 00:21:30;;;;;;;1.60;1.10;;;;;;;13.99;83.23;99717.91;5124826;28;20016;-64
2024/04/07 00:23:56;;;;;;;1.58;1.25;;;;;;;14.06;84.28;99719.41;5124781;28;20048;-64
2024/04/07 00:26:22;;;;;;;2.22;1.88;;;;;;;14.05;83.19;99722.91;5127126;28;20087;-65
2024/04/07 00:28:48;;;;;;;2.50;1.50;;;;;;;14.02;83.74;99719.56;5128454;28;20043;-64
2024/04/07 00:31:14;;;;;;;1.80;1.08;;;;;;;14.00;84.06;99698.72;5128526;28;20051;-63
2024/04/07 00:33:39;;;;;;;2.40;1.27;;;;;;;14.02;83.45;99712.59;5128440;28;20027;-64
2024/04/07 00:36:05;;;;;;;4.38;1.88;;;;;;;13.99;84.00;99718.75;5126988;28;20019;-65
2024/04/07 00:38:32;;;;;;;1.95;1.27;;;;;;;13.93;84.36;99707.69;5127940;28;20024;-64
2024/04/07 00:40:59;;;;;;;3.08;1.73;;;;;;;14.03;84.81;99713.41;5126887;28;20131;-64
2024/04/07 00:43:26;;;;;;;1.52;1.17;;;;;;;13.96;85.39;99713.63;5128021;28;20103;-65
2024/04/07 00:45:53;;;;;;;5.10;2.28;;;;;;;13.93;85.20;99731.16;5126582;28;20027;-63
2024/04/07 00:48:19;;;;;;;1.40;1.13;;;;;;;13.85;84.68;99747.09;5128405;28;20030;-64
2024/04/07 00:50:49;;;;;;;2.53;1.85;;;;;;;13.80;84.43;99744.59;5127787;28;20035;-64
2024/04/07 00:53:16;;;;;;;5.72;1.95;;;;;;;13.79;84.40;99749.88;5127985;28;20035;-65
2024/04/07 00:55:43;;;;;;;6.63;2.33;;;;;;;13.70;84.08;99740.59;5127990;28;20028;-64
2024/04/07 00:58:09;;;;;;;4.88;2.28;;;;;;;13.74;84.07;99744.78;5127843;28;20032;-65
2024/04/07 01:00:35;;;;;;;3.03;1.58;;;;;;;13.68;84.24;99732.81;5127959;28;20046;-64
2024/04/07 01:03:00;;;;;;;7.82;2.45;;;;;;;13.71;85.18;99713.59;5128034;28;20502;-64
2024/04/07 01:05:26;;;;;;;3.05;1.25;;;;;;;13.69;85.42;99705.81;5127751;28;20420;-64
2024/04/07 01:07:54;;;;;;;2.55;1.58;;;;;;;13.72;85.71;99721.38;5127773;28;20076;-63
2024/04/07 01:10:20;;;;;;;3.30;1.65;;;;;;;13.71;86.00;99713.59;5127719;28;20027;-64
2024/04/07 01:12:52;;;;;;;6.22;1.80;;;;;;;13.73;86.54;99717.88;5127384;28;20090;-63
2024/04/07 01:15:17;;;;;;;3.88;1.90;;;;;;;13.65;87.30;99704.22;5127530;28;20024;-65
2024/04/07 01:17:43;;;;;;;8.60;1.83;;;;;;;13.62;87.23;99730.41;5127733;28;20030;-63
2024/04/07 01:20:10;;;;;;;3.88;1.80;;;;;;;13.61;87.44;99739.16;5127369;28;20831;-65
2024/04/07 01:22:35;;;;;;;5.90;2.33;;;;;;;13.56;87.18;99736.66;5127632;28;20066;-65
2024/04/07 01:25:01;;;;;;;5.93;1.80;;;;;;;13.55;87.50;99729.75;5127603;28;20483;-65
2024/04/07 01:27:26;;;;;;;5.53;2.33;;;;;;;13.53;86.88;99726.31;5127120;28;20048;-64
2024/04/07 01:29:51;;;;;;;3.08;2.17;;;;;;;13.55;87.22;99734.09;5127318;28;20072;-63
2024/04/07 01:32:17;;;;;;;3.88;1.52;;;;;;;13.58;87.79;99732.25;5127414;28;20020;-64
2024/04/07 01:34:43;;;;;;;4.85;2.03;;;;;;;13.49;86.87;99717.72;5127311;28;20081;-64
2024/04/07 01:37:08;;;;;;;7.72;2.17;;;;;;;13.54;87.61;99719.38;5126102;28;20083;-64
2024/04/07 01:39:33;;;;;;;2.13;1.92;;;;;;;13.55;86.88;99729.75;5126895;28;20023;-64
2024/04/07 01:41:59;;;;;;;2.85;1.30;;;;;;;13.56;87.18;99725.41;5126961;28;20045;-65
2024/04/07 01:44:24;;;;;;;1.73;1.40;;;;;;;13.59;87.33;99715.72;5118175;28;20032;-64
2024/04/07 01:46:49;;;;;;;2.15;1.65;;;;;;;13.56;86.39;99714.97;5127052;28;20371;-65
2024/04/07 01:49:15;;;;;;;0.93;0.90;;;;;;;13.56;87.39;99705.34;5126996;28;20091;-64
2024/04/07 01:51:40;;;;;;;4.28;2.28;;;;;;;13.55;86.24;99706.28;5126969;28;20027;-64
2024/04/07 01:54:05;;;;;;;2.67;1.55;;;;;;;13.60;86.76;99700.91;5126776;28;20027;-64
2024/04/07 01:56:31;;;;;;;1.98;1.30;;;;;;;13.59;86.46;99705.28;5126607;28;20030;-65
2024/04/07 01:58:56;;;;;;;4.25;1.70;;;;;;;13.63;86.68;99695.59;5126957;28;20102;-64
2024/04/07 02:01:22;;;;;;;5.78;1.92;;;;;;;13.63;87.54;99691.25;5126520;28;20120;-65
2024/04/07 02:03:48;;;;;;;2.78;1.00;;;;;;;13.56;87.50;99683.66;5126674;28;20031;-64
2024/04/07 02:06:13;;;;;;;5.97;1.98;;;;;;;13.59;87.63;99684.44;5126610;28;20047;-64
2024/04/07 02:08:39;;;;;;;4.88;1.17;;;;;;;13.62;88.10;99692.16;5126600;28;20028;-64
2024/04/07 02:11:04;;;;;;;3.28;1.52;;;;;;;13.57;88.43;99682.75;5126216;28;20110;-65
2024/04/07 02:13:29;;;;;;;3.47;1.30;;;;;;;13.58;88.77;99677.50;5125300;28;20027;-63
2024/04/07 02:15:55;;;;;;;3.13;1.63;;;;;;;13.65;88.23;99672.06;5126507;28;20024;-65
2024/04/07 02:18:21;;;;;;;1.65;1.52;;;;;;;13.60;88.65;99656.56;5108160;28;20059;-65
2024/04/07 02:20:53;;;;;;;3.30;1.33;;;;;;;13.62;88.56;99666.06;5126270;28;20045;-64
2024/04/07 02:23:19;;;;;;;2.67;2.03;;;;;;;13.60;88.27;99670.47;5126340;28;20024;-64
2024/04/07 02:25:46;;;;;;;4.22;1.38;;;;;;;13.55;88.96;99667.16;5126196;28;20064;-63
2024/04/07 02:28:12;;;;;;;2.30;1.55;;;;;;;13.54;88.93;99660.25;5124668;28;20045;-64
2024/04/07 02:30:38;;;;;;;3.22;1.23;;;;;;;13.49;89.48;99662.13;5126029;28;20050;-65
2024/04/07 02:33:04;;;;;;;2.58;1.50;;;;;;;13.49;88.21;99656.91;5125795;28;20379;-64
2024/04/07 02:35:31;;;;;;;7.22;2.05;;;;;;;13.49;88.21;99646.47;5125849;28;20022;-63
2024/04/07 02:37:57;;;;;;;2.92;1.77;;;;;;;13.40;87.77;99663.28;5125869;28;20102;-65
2024/04/07 02:40:22;;;;;;;2.25;1.83;;;;;;;13.35;88.57;99653.00;5125804;28;20048;-65
2024/04/07 02:42:48;;;;;;;4.93;2.40;;;;;;;13.38;87.99;99654.66;5124283;28;20114;-64
2024/04/07 02:48:04;;;;;;;1.88;1.35;;;;;;;13.27;88.57;99652.38;5125611;28;20084;-64
2024/04/07 02:50:30;;;;;;;5.18;1.45;;;;;;;13.27;88.83;99653.22;5125687;28;20023;-64
2024/04/07 02:52:55;;;;;;;1.33;1.17;;;;;;;13.27;88.97;99647.16;5124373;28;20122;-64
2024/04/07 02:55:21;;;;;;;3.40;1.65;;;;;;;13.28;88.40;99643.66;5125649;28;20023;-63
2024/04/07 02:57:46;;;;;;;8.70;2.13;;;;;;;13.18;87.79;99634.44;5125724;28;20049;-66
2024/04/07 03:00:15;;;;;;;1.77;1.30;;;;;;;13.20;88.06;99632.63;5125872;28;20031;-63
2024/04/07 03:02:44;;;;;;;5.38;1.77;;;;;;;13.14;87.73;99633.69;5125667;28;20071;-65
2024/04/07 03:05:13;;;;;;;5.10;1.83;;;;;;;13.10;87.49;99639.91;5125627;28;20031;-64
2024/04/07 03:07:39;;;;;;;9.75;2.42;;;;;;;13.07;88.32;99634.75;5125645;28;20093;-63
2024/04/07 03:10:06;;;;;;;3.95;1.95;;;;;;;13.06;87.42;99623.50;5125547;28;20094;-64
2024/04/07 03:12:32;;;;;;;4.40;1.73;;;;;;;12.99;87.46;99615.00;5125440;28;20387;-63
2024/04/07 03:15:01;;;;;;;3.35;1.70;;;;;;;12.98;87.65;99620.28;5125315;28;20499;-63
2024/04/07 03:17:26;;;;;;;2.13;1.80;;;;;;;12.94;87.54;99618.69;5125367;28;20387;-64
2024/04/07 03:19:52;;;;;;;5.15;1.48;;;;;;;12.95;87.85;99623.84;5125071;28;20019;-63
2024/04/07 03:22:17;;;;;;;8.85;2.42;;;;;;;12.92;87.39;99626.53;5116732;28;20491;-64
2024/04/07 03:24:43;;;;;;;3.35;1.33;;;;;;;12.88;87.81;99624.91;5125389;28;20015;-64
2024/04/07 03:27:08;;;;;;;2.35;1.83;;;;;;;12.84;87.58;99624.13;5125130;28;20030;-65
2024/04/07 03:29:34;;;;;;;4.57;1.17;;;;;;;12.83;87.77;99627.66;5125399;28;20023;-64
2024/04/07 03:31:59;;;;;;;3.90;1.60;;;;;;;12.75;88.10;99625.28;5125307;28;20020;-63
2024/04/07 03:34:25;;;;;;;4.55;2.38;;;;;;;12.70;88.76;99631.53;5125341;28;20030;-64
2024/04/07 03:36:50;;;;;;;1.38;1.17;;;;;;;12.69;89.35;99627.22;5125102;28;20058;-64
2024/04/07 03:39:19;;;;;;;9.15;2.22;;;;;;;12.68;89.95;99625.50;5125122;28;20040;-64
2024/04/07 03:41:45;;;;;;;3.20;1.58;;;;;;;12.69;89.87;99632.41;5104773;28;20437;-63
2024/04/07 03:44:10;;;;;;;3.97;2.25;;;;;;;12.70;90.03;99618.53;5104864;28;20555;-64
2024/04/07 03:46:37;;;;;;;2.10;1.58;;;;;;;12.70;89.96;99615.91;5104977;28;20023;-64
2024/04/07 03:49:02;;;;;;;5.03;2.38;;;;;;;12.70;89.72;99608.09;5104919;28;20031;-64
2024/04/07 03:51:28;;;;;;;4.25;1.95;;;;;;;12.65;90.06;99592.63;5103493;28;20064;-63
2024/04/07 03:53:53;;;;;;;6.82;1.95;;;;;;;12.59;90.17;99583.22;5104714;28;20020;-64
2024/04/07 03:56:18;;;;;;;1.73;1.45;;;;;;;12.60;90.81;99584.91;5104526;28;20111;-64
2024/04/07 03:58:44;;;;;;;4.72;2.10;;;;;;;12.65;91.04;99579.59;5104999;28;20024;-64
2024/04/07 04:01:09;;;;;;;1.55;1.33;;;;;;;12.69;90.91;99591.63;5108014;28;20028;-63
2024/04/07 04:03:34;;;;;;;4.18;1.80;;;;;;;12.60;91.12;99579.72;5108712;28;20023;-63
2024/04/07 04:06:00;;;;;;;3.80;1.77;;;;;;;12.64;90.99;99590.91;5108603;28;20026;-62
2024/04/07 04:08:25;;;;;;;3.60;1.73;;;;;;;12.64;91.63;99591.75;5108730;28;20043;-62
2024/04/07 04:10:50;;;;;;;5.15;1.63;;;;;;;12.69;91.91;99595.97;5106993;28;20023;-63
2024/04/07 04:13:16;;;;;;;2.33;1.60;;;;;;;12.66;91.72;99601.25;5108214;28;20024;-63
2024/04/07 04:15:42;;;;;;;2.65;1.55;;;;;;;12.64;91.43;99610.00;5108390;28;20026;-64
2024/04/07 04:18:09;;;;;;;4.78;1.45;;;;;;;12.64;91.38;99610.00;5124233;28;20040;-63
2024/04/07 04:20:40;;;;;;;3.65;1.63;;;;;;;12.60;91.83;99618.75;5108412;28;20103;-64
2024/04/07 04:23:07;;;;;;;2.17;1.73;;;;;;;12.59;91.91;99613.59;5108240;28;20051;-65
2024/04/07 04:25:32;;;;;;;3.35;1.38;;;;;;;12.58;92.38;99628.41;5108419;28;20016;-64
2024/04/07 04:27:58;;;;;;;2.22;1.50;;;;;;;12.59;92.37;99639.66;5106300;28;20019;-64
2024/04/07 04:30:24;;;;;;;10.57;1.67;;;;;;;12.53;92.51;99632.88;5108086;28;20053;-63
2024/04/07 04:32:49;;;;;;;4.53;1.65;;;;;;;12.47;92.57;99625.25;5107934;28;20030;-63
2024/04/07 04:35:15;;;;;;;5.30;1.27;;;;;;;12.46;93.01;99613.97;5107882;28;20051;-62
2024/04/07 04:37:40;;;;;;;2.13;1.15;;;;;;;12.43;93.06;99644.47;5107852;28;20032;-63
2024/04/07 04:40:08;;;;;;;3.85;1.48;;;;;;;12.33;93.76;99629.09;5120979;27;20062;-63
2024/04/07 04:42:35;;;;;;;1.58;1.42;;;;;;;12.32;93.84;99621.31;5148778;27;20026;-63
2024/04/07 04:45:00;;;;;;;3.95;1.77;;;;;;;12.21;93.82;99621.63;5148847;27;20054;-64
2024/04/07 04:47:26;;;;;;;2.55;1.65;;;;;;;12.13;94.24;99616.63;5148678;27;20042;-63
2024/04/07 04:49:52;;;;;;;2.88;1.70;;;;;;;12.01;94.37;99602.22;5148749;27;20019;-63
2024/04/07 04:52:17;;;;;;;4.22;1.63;;;;;;;11.98;94.70;99618.72;5148777;27;20026;-63
2024/04/07 04:54:42;;;;;;;3.30;2.40;;;;;;;11.93;94.76;99635.38;5148502;27;20034;-63
2024/04/07 04:57:08;;;;;;;1.40;1.10;;;;;;;11.88;95.50;99617.28;5148413;27;20023;-63
2024/04/07 04:59:33;;;;;;;4.70;1.30;;;;;;;11.75;95.92;99601.16;5130033;27;20547;-63
2024/04/07 05:01:58;;;;;;;3.15;2.00;;;;;;;11.78;95.81;99601.06;5148531;27;20023;-63
2024/04/07 05:04:24;;;;;;;2.25;1.40;;;;;;;11.73;96.55;99613.31;5148640;27;20092;-64
2024/04/07 05:06:50;;;;;;;3.15;1.45;;;;;;;11.63;96.57;99610.97;5148389;27;20023;-64
2024/04/07 05:09:15;;;;;;;5.65;1.48;;;;;;;11.62;96.94;99604.06;5148588;27;20098;-64
2024/04/07 05:11:40;;;;;;;2.25;1.38;;;;;;;11.57;97.22;99631.91;5147705;27;20360;-66
2024/04/07 05:14:07;;;;;;;3.85;1.38;;;;;;;11.48;97.79;99613.97;5129793;27;20027;-67
2024/04/07 05:16:33;;;;;;;2.55;1.73;;;;;;;11.45;98.08;99630.50;5148410;27;20072;-66
2024/04/07 05:18:58;;;;;;;4.75;1.27;;;;;;;11.43;98.31;99653.06;5129706;27;20027;-65
2024/04/07 05:21:24;;;;;;;3.10;1.88;;;;;;;11.36;98.93;99630.69;5129334;27;20113;-66
2024/04/07 05:23:50;;;;;;;4.07;1.45;;;;;;;11.37;99.45;99627.22;5148238;27;20023;-67
2024/04/07 05:26:21;;;;;;;0.30;0.30;;;;;;;11.29;100.00;99624.81;5129398;27;20027;-67
2024/04/07 05:28:47;;;;;;;0.30;0.30;;;;;;;11.29;100.00;99637.81;5129711;27;20141;-67
2024/04/07 05:31:13;;;;;;;0.30;0.30;;;;;;;11.23;100.00;99643.16;5147961;27;20525;-68
2024/04/07 05:33:45;;;;;;;0.30;0.30;;;;;;;11.20;100.00;99635.44;5129314;27;20132;-68
2024/04/07 05:36:11;;;;;;;0.30;0.30;;;;;;;11.19;100.00;99636.31;5129386;27;20023;-68
2024/04/07 05:38:38;;;;;;;0.30;0.30;;;;;;;11.13;100.00;99638.16;5147817;27;20121;-68
2024/04/07 05:41:04;;;;;;;0.40;0.40;;;;;;;11.09;100.00;99646.91;5147548;27;20043;-67
2024/04/07 05:43:31;;;;;;;0.82;0.82;;;;;;;11.04;100.00;99648.75;5147460;27;20510;-66
2024/04/07 05:46:02;;;;;;;0.40;0.40;;;;;;;11.00;100.00;99670.50;5129001;27;20019;-66
2024/04/07 05:48:29;;;;;;;0.30;0.30;;;;;;;10.95;100.00;99661.94;5147612;27;20031;-66
2024/04/07 05:50:55;;;;;;;0.60;0.60;;;;;;;10.91;100.00;99645.56;5147688;27;20026;-68
2024/04/07 05:53:20;;;;;;;0.40;0.40;;;;;;;10.86;100.00;99652.63;5147331;27;20071;-67
2024/04/07 05:55:45;;;;;;;0.40;0.40;;;;;;;10.72;100.00;99650.34;5147549;27;20027;-66
2024/04/07 05:58:12;;;;;;;0.30;0.30;;;;;;;10.60;100.00;99643.63;5147258;27;20023;-68
2024/04/07 06:00:37;;;;;;;0.30;0.30;;;;;;;10.51;100.00;99642.09;5147330;27;20023;-66
2024/04/07 06:03:03;;;;;;;0.30;0.30;;;;;;;10.36;100.00;99666.56;5128654;27;20160;-66
2024/04/07 06:05:34;;;;;;;0.20;0.20;;;;;;;10.35;100.00;99670.91;5147189;27;20023;-66
2024/04/07 06:08:00;;;;;;;0.30;0.30;;;;;;;10.24;100.00;99662.50;5147078;27;20023;-66
2024/04/07 06:10:25;;;;;;;0.30;0.30;;;;;;;10.15;100.00;99681.66;5147040;27;20054;-66
2024/04/07 06:12:51;;;;;;;0.30;0.30;;;;;;;10.10;100.00;99712.88;5128479;27;20026;-66
2024/04/07 06:15:18;;;;;;;0.30;0.30;;;;;;;10.04;100.00;99728.53;5147147;27;20110;-65
2024/04/07 06:17:46;;;;;;;0.30;0.30;;;;;;;9.92;100.00;99712.31;5147037;27;20023;-66
2024/04/07 06:20:11;;;;;;;0.30;0.30;;;;;;;9.86;100.00;99714.13;5146925;27;20027;-66
2024/04/07 06:22:36;;;;;;;0.30;0.30;;;;;;;9.77;100.00;99723.81;5146242;27;20023;-67
2024/04/07 06:25:02;;;;;;;0.35;0.35;;;;;;;9.71;100.00;99725.63;5147057;27;20020;-67
2024/04/07 06:27:28;;;;;;;0.38;0.38;;;;;;;9.66;100.00;99730.88;5128257;27;20023;-66
2024/04/07 06:29:58;;;;;;;0.30;0.30;;;;;;;9.57;100.00;99729.28;5146866;27;20082;-66
2024/04/07 06:32:24;;;;;;;0.50;0.50;;;;;;;9.57;100.00;99726.69;5146667;27;20034;-65
2024/04/07 06:34:49;;;;;;;0.20;0.20;;;;;;;9.62;100.00;99743.03;5146688;27;20023;-65
2024/04/07 06:37:15;;;;;;;0.30;0.30;;;;;;;9.56;100.00;99719.81;5128026;27;20026;-66
2024/04/07 06:39:40;;;;;;;0.40;0.40;;;;;;;9.53;100.00;99718.13;5146441;27;20047;-66
2024/04/07 06:42:06;;;;;;;0.30;0.30;;;;;;;9.57;100.00;99712.88;5146335;27;20019;-65
2024/04/07 06:44:31;;;;;;;0.63;0.63;;;;;;;9.59;100.00;99714.56;5146592;27;20053;-66
2024/04/07 06:46:56;;;;;;;0.40;0.40;;;;;;;9.57;100.00;99713.72;5146452;27;20034;-66
2024/04/07 06:49:21;;;;;;;0.30;0.30;;;;;;;9.58;100.00;99719.78;5146649;27;20015;-65
2024/04/07 06:51:47;;;;;;;0.30;0.30;;;;;;;9.55;100.00;99711.16;5146151;27;20030;-66
2024/04/07 06:54:12;;;;;;;0.30;0.30;;;;;;;9.57;100.00;99705.94;5146243;27;20574;-66
2024/04/07 06:56:37;;;;;;;0.30;0.30;;;;;;;9.58;100.00;99707.69;5146072;27;20019;-66
2024/04/07 06:59:03;;;;;;;2.33;1.92;;;;;;;9.60;100.00;99713.69;5146434;27;20459;-66
2024/04/07 07:01:29;;;;;;;1.20;1.20;;;;;;;9.58;100.00;99723.22;5146290;27;20055;-67
2024/04/07 07:03:54;;;;;;;0.30;0.30;;;;;;;9.58;100.00;99733.59;5127756;27;20015;-66
2024/04/07 07:06:20;;;;;;;0.30;0.30;;;;;;;9.60;100.00;99739.59;5146067;27;20019;-66
2024/04/07 07:08:45;;;;;;;0.30;0.30;;;;;;;9.58;100.00;99738.78;5146343;27;20056;-67
2024/04/07 07:11:11;;;;;;;0.30;0.30;;;;;;;9.62;100.00;99735.25;5146169;27;20023;-67
2024/04/07 07:13:42;;;;;;;0.30;0.30;;;;;;;9.70;100.00;99731.66;5145877;27;20082;-64
2024/04/07 07:16:08;;;;;;;0.40;0.40;;;;;;;9.73;100.00;99722.13;5127520;27;20023;-67
2024/04/07 07:18:33;;;;;;;0.30;0.30;;;;;;;9.76;100.00;99723.81;5127566;28;20038;-66
2024/04/07 07:20:59;;;;;;;0.30;0.30;;;;;;;9.81;100.00;99727.19;5146052;28;20034;-66
2024/04/07 07:23:24;;;;;;;0.30;0.30;;;;;;;9.82;100.00;99728.03;5127841;28;20027;-67
2024/04/07 07:25:52;;;;;;;0.30;0.30;;;;;;;9.87;100.00;99747.81;5127518;28;20135;-67
2024/04/07 07:28:17;;;;;;;0.30;0.30;;;;;;;9.89;100.00;99733.09;5145728;28;20039;-65
2024/04/07 07:30:43;;;;;;;0.30;0.30;;;;;;;9.91;100.00;99730.47;5146077;28;20026;-66
2024/04/07 07:33:08;;;;;;;0.40;0.40;;;;;;;9.97;100.00;99734.72;5146297;27;20042;-67
2024/04/07 07:35:34;;;;;;;0.30;0.30;;;;;;;10.01;100.00;99739.84;5149973;27;20019;-67
2024/04/07 07:38:00;;;;;;;0.30;0.30;;;;;;;10.02;100.00;99732.88;5150263;27;20024;-66
2024/04/07 07:40:25;;;;;;;0.20;0.20;;;;;;;10.07;100.00;99725.91;5149755;27;20050;-66
2024/04/07 07:42:50;;;;;;;0.30;0.30;;;;;;;10.13;100.00;99730.97;5149891;27;20455;-66
2024/04/07 07:45:20;;;;;;;0.30;0.30;;;;;;;10.15;100.00;99730.94;5131611;27;20054;-66
2024/04/07 07:47:46;;;;;;;0.35;0.35;;;;;;;10.17;100.00;99737.81;5150008;27;20378;-67
2024/04/07 07:50:12;;;;;;;0.30;0.30;;;;;;;10.17;100.00;99737.81;5149901;27;20034;-67
2024/04/07 07:52:37;;;;;;;0.25;0.25;;;;;;;10.21;100.00;99732.59;5150020;27;20030;-67
2024/04/07 07:55:03;;;;;;;0.30;0.30;;;;;;;10.22;100.00;99721.31;5149914;27;20031;-66
2024/04/07 07:57:29;;;;;;;0.30;0.30;;;;;;;10.21;100.00;99715.25;5131238;27;20042;-66
2024/04/07 07:59:54;;;;;;;0.30;0.30;;;;;;;10.24;100.00;99717.81;5149719;27;20098;-65
2024/04/07 08:02:19;;;;;;;0.30;0.30;;;;;;;10.22;100.00;99692.78;5149708;27;20019;-67
2024/04/07 08:04:45;;;;;;;0.47;0.47;;;;;;;10.22;100.00;99708.34;5149725;27;20019;-66
2024/04/07 08:07:10;;;;;;;1.88;0.60;;;;;;;10.24;100.00;99711.78;5131155;27;20023;-66
2024/04/07 08:09:36;;;;;;;1.45;0.70;;;;;;;10.27;100.00;99711.72;5131169;27;20090;-65
2024/04/07 08:12:01;;;;;;;0.80;0.80;;;;;;;10.25;100.00;99709.16;5149300;27;20363;-67
2024/04/07 08:14:26;;;;;;;0.32;0.32;;;;;;;10.26;100.00;99720.38;5149557;27;20466;-66
2024/04/07 08:16:52;;;;;;;0.50;0.50;;;;;;;10.22;100.00;99710.94;5149473;27;20023;-67
2024/04/07 08:19:17;;;;;;;0.40;0.40;;;;;;;10.21;100.00;99710.09;5149551;27;20023;-66
2024/04/07 08:21:43;;;;;;;0.85;0.52;;;;;;;10.25;100.00;99724.72;5149184;27;20072;-67
2024/04/07 08:24:10;;;;;;;0.57;0.57;;;;;;;10.25;100.00;99729.91;5149493;27;20474;-66
2024/04/07 08:26:35;;;;;;;2.97;0.73;;;;;;;10.22;100.00;99698.84;5149336;27;20023;-66
2024/04/07 08:29:01;;;;;;;0.70;0.70;;;;;;;10.23;100.00;99721.28;5149095;27;20019;-67
2024/04/07 08:31:26;;;;;;;2.15;0.57;;;;;;;10.22;100.00;99723.91;5149084;27;20054;-67
2024/04/07 08:33:51;;;;;;;1.23;0.50;;;;;;;10.23;100.00;99715.25;5149204;27;20020;-67
2024/04/07 08:36:16;;;;;;;0.77;0.50;;;;;;;10.25;100.00;99713.47;5149067;27;20023;-67
2024/04/07 08:38:42;;;;;;;2.28;0.50;;;;;;;10.25;100.00;99719.53;5149131;27;20394;-67
2024/04/07 08:41:11;;;;;;;0.45;0.40;;;;;;;10.30;100.00;99727.22;5148939;27;20047;-68
2024/04/07 08:43:43;;;;;;;0.60;0.60;;;;;;;10.34;100.00;99741.84;5148998;27;20034;-67
2024/04/07 08:46:11;;;;;;;0.40;0.40;;;;;;;10.34;100.00;99726.28;5148296;27;20087;-67
2024/04/07 08:48:50;;;;;;;1.73;0.60;;;;;;;10.39;100.00;99747.81;5149000;27;20023;-68
2024/04/07 08:51:16;;;;;;;1.42;1.00;;;;;;;10.41;100.00;99747.78;5130144;27;20034;-66
2024/04/07 08:53:42;;;;;;;0.90;0.52;;;;;;;10.43;100.00;99729.59;5148743;27;20023;-65
2024/04/07 08:56:09;;;;;;;0.40;0.40;;;;;;;10.44;100.00;99744.28;5148433;27;20386;-68
2024/04/07 08:58:36;;;;;;;0.82;0.73;;;;;;;10.44;100.00;99765.91;5129861;27;20489;-66
2024/04/07 09:01:02;;;;;;;0.50;0.50;;;;;;;10.43;100.00;99755.53;5148542;27;20023;-66
2024/04/07 09:03:31;;;;;;;0.63;0.55;;;;;;;10.44;100.00;99765.03;5130025;27;20042;-65
2024/04/07 09:05:57;;;;;;;1.58;0.95;;;;;;;10.44;100.00;99745.13;5148484;27;20023;-68
2024/04/07 09:08:23;;;;;;;5.03;0.60;;;;;;;10.56;100.00;99748.41;5148497;27;20023;-69
2024/04/07 09:10:48;;;;;;;0.38;0.38;;;;;;;10.71;100.00;99748.13;5129967;27;20019;-66
2024/04/07 09:13:16;;;;;;;0.80;0.50;;;;;;;10.87;100.00;99738.28;5148215;27;20019;-66
2024/04/07 09:15:42;;;;;;;0.30;0.30;;;;;;;11.38;100.00;99725.94;5148300;27;20030;-65
2024/04/07 09:18:10;;;;;;;0.98;0.95;;;;;;;12.00;100.00;99714.94;5148062;27;20070;-66
2024/04/07 09:20:35;;;;;;;4.30;0.68;;;;;;;12.29;100.00;99712.50;5130076;27;20046;-66
2024/04/07 09:23:01;;;;;;;0.45;0.45;;;;;;;12.37;100.00;99711.41;5148247;27;20023;-65
2024/04/07 09:25:27;;;;;;;1.88;0.85;;;;;;;12.33;100.00;99722.78;5148255;27;20534;-67
2024/04/07 09:27:52;;;;;;;0.93;0.93;;;;;;;12.39;100.00;99712.22;5148013;27;20042;-65
2024/04/07 09:30:18;;;;;;;2.75;0.73;;;;;;;12.39;100.00;99717.44;5148053;27;20373;-65
2024/04/07 09:32:43;;;;;;;3.00;0.90;;;;;;;12.63;100.00;99727.22;5147811;27;20023;-66
2024/04/07 09:35:08;;;;;;;1.25;1.10;;;;;;;12.66;100.00;99739.28;5147878;27;20358;-64
2024/04/07 09:37:38;;;;;;;1.75;1.13;;;;;;;12.48;100.00;99741.50;5148002;27;20082;-63
2024/04/07 09:40:03;;;;;;;1.10;0.63;;;;;;;13.17;100.00;99747.38;5147608;27;20057;-63
2024/04/07 09:42:31;;;;;;;1.63;0.80;;;;;;;13.77;100.00;99736.88;5147418;27;20019;-63
2024/04/07 09:45:01;;;;;;;5.03;0.75;;;;;;;14.08;100.00;99738.47;5147728;27;20023;-64
2024/04/07 09:47:27;;;;;;;5.47;1.17;;;;;;;13.69;100.00;99738.91;5112600;27;20027;-64
2024/04/07 09:50:02;;;;;;;2.67;0.60;;;;;;;14.16;100.00;99742.56;5147667;27;20019;-63
2024/04/07 09:52:32;;;;;;;1.10;0.57;;;;;;;14.93;99.11;99728.56;5147445;27;20062;-64
2024/04/07 09:55:03;;;;;;;1.17;0.70;;;;;;;15.61;95.37;99727.69;5147507;27;20023;-62
2024/04/07 09:57:30;;;;;;;1.63;0.65;;;;;;;16.17;91.59;99735.03;5146311;27;20090;-65
2024/04/07 09:59:57;;;;;;;2.03;1.42;;;;;;;16.76;88.45;99747.34;5147715;27;20029;-63
2024/04/07 10:02:23;;;;;;;2.38;1.88;;;;;;;17.14;85.97;99735.22;5147086;27;20062;-64
2024/04/07 10:04:48;;;;;;;0.55;0.50;;;;;;;17.25;81.14;99722.47;5147260;27;20015;-63
2024/04/07 10:07:16;;;;;;;3.50;0.80;;;;;;;17.35;79.45;99725.47;5147187;27;20083;-62
2024/04/07 10:09:43;;;;;;;1.13;0.68;;;;;;;17.44;76.68;99751.25;5147480;27;20023;-62
2024/04/07 10:12:09;;;;;;;2.25;1.17;;;;;;;17.03;76.59;99739.16;5146974;27;20053;-61
2024/04/07 10:14:41;;;;;;;0.90;0.60;;;;;;;16.75;76.94;99761.38;5146722;27;20023;-62
2024/04/07 10:17:09;;;;;;;0.95;0.82;;;;;;;16.80;76.10;99750.69;5128719;27;20077;-61
2024/04/07 10:19:35;;;;;;;1.65;1.00;;;;;;;16.54;77.35;99774.53;5147101;27;20024;-61
2024/04/07 10:22:01;;;;;;;1.00;0.52;;;;;;;17.05;78.49;99746.94;5146429;27;20030;-61
2024/04/07 10:24:27;;;;;;;1.05;0.70;;;;;;;17.53;74.51;99762.25;5146730;27;20095;-61
2024/04/07 10:26:58;;;;;;;2.47;0.68;;;;;;;17.93;73.14;99773.44;5146424;27;20022;-61
2024/04/07 10:29:30;;;;;;;4.72;1.00;;;;;;;18.27;72.05;99772.69;5146919;27;20141;-62
2024/04/07 10:31:55;;;;;;;3.45;0.77;;;;;;;18.61;70.11;99775.38;5146622;27;20554;-62
2024/04/07 10:34:21;;;;;;;1.27;0.65;;;;;;;18.93;68.78;99770.19;5146868;27;20051;-60
2024/04/07 10:36:55;;;;;;;5.22;1.08;;;;;;;19.13;67.85;99757.75;5146566;27;20023;-62
2024/04/07 10:39:22;;;;;;;0.40;0.40;;;;;;;19.06;65.25;99765.94;5146585;27;20031;-62
2024/04/07 10:41:47;;;;;;;2.83;0.70;;;;;;;18.91;64.48;99779.94;5128342;27;20019;-62
2024/04/07 10:44:13;;;;;;;1.25;1.05;;;;;;;18.69;63.31;99775.81;5146719;27;20054;-62
2024/04/07 10:46:38;;;;;;;1.85;1.20;;;;;;;18.17;64.98;99772.31;5146443;27;20019;-61
2024/04/07 10:49:04;;;;;;;2.00;1.13;;;;;;;18.46;66.83;99780.50;5146420;27;20019;-61
2024/04/07 10:51:31;;;;;;;4.13;1.13;;;;;;;18.14;66.65;99794.34;5146426;27;20031;-64
2024/04/07 10:54:15;;;;;;;9.02;0.93;;;;;;;17.12;65.43;99790.38;5146332;27;20019;-61
2024/04/07 10:56:41;;;;;;;1.00;1.00;;;;;;;16.27;66.67;99800.13;5127897;27;20466;-62
2024/04/07 10:59:06;;;;;;;3.75;1.48;;;;;;;15.62;68.14;99807.03;5146127;27;20075;-61
2024/04/07 11:01:33;;;;;;;1.02;0.73;;;;;;;15.15;69.19;99803.56;5146212;27;20462;-61
2024/04/07 11:03:58;;;;;;;5.57;0.93;;;;;;;15.14;71.78;99785.31;5146319;27;20043;-61
2024/04/07 11:06:25;;;;;;;5.75;1.48;;;;;;;15.20;72.12;99814.72;5127709;28;20054;-61
2024/04/07 11:08:51;;;;;;;0.73;0.50;;;;;;;15.01;71.61;99831.97;5145876;27;20027;-60
2024/04/07 11:11:16;;;;;;;1.00;0.77;;;;;;;14.65;71.69;99820.97;5145997;27;20031;-62
2024/04/07 11:13:42;;;;;;;5.03;1.08;;;;;;;14.21;72.56;99837.25;5145928;27;20031;-61
2024/04/07 11:16:10;;;;;;;9.43;0.88;;;;;;;13.95;72.41;99836.31;5145813;27;20049;-62
2024/04/07 11:18:36;;;;;;;2.90;0.52;;;;;;;14.12;73.01;99835.81;5145273;27;20061;-62
2024/04/07 11:21:03;;;;;;;5.13;1.25;;;;;;;14.70;73.20;99836.50;5145630;28;20026;-61
2024/04/07 11:23:28;;;;;;;4.63;1.52;;;;;;;15.46;70.88;99846.03;5146090;28;20027;-61
2024/04/07 11:25:54;;;;;;;5.60;1.33;;;;;;;15.66;67.65;99852.22;5146367;28;20054;-61
2024/04/07 11:28:21;;;;;;;3.05;1.35;;;;;;;15.15;68.44;99866.31;5145679;28;20023;-62
2024/04/07 11:30:51;;;;;;;2.03;1.20;;;;;;;14.48;70.75;99866.81;5146025;28;20023;-63